createdAt,value
2017-05-22T00:00:27.967Z,16.01
2017-05-22T00:01:08.393Z,16.11
2017-05-22T00:01:48.870Z,16.11
2017-05-22T00:02:29.305Z,16.09
2017-05-22T00:03:09.752Z,16.09
2017-05-22T00:03:50.200Z,16.07
2017-05-22T00:04:30.668Z,16
2017-05-22T00:05:11.148Z,15.96
2017-05-22T00:05:51.629Z,15.93
2017-05-22T00:06:32.129Z,15.87
2017-05-22T00:07:12.605Z,15.89
2017-05-22T00:07:53.074Z,15.86
2017-05-22T00:08:33.521Z,15.82
2017-05-22T00:09:14.001Z,15.71
2017-05-22T00:09:54.469Z,15.71
2017-05-22T00:10:34.962Z,15.76
2017-05-22T00:11:15.431Z,15.84
2017-05-22T00:11:55.913Z,15.82
2017-05-22T00:12:36.400Z,15.72
2017-05-22T00:13:16.883Z,15.76
2017-05-22T00:13:57.357Z,15.75
2017-05-22T00:14:37.796Z,15.75
2017-05-22T00:15:18.294Z,15.62
2017-05-22T00:15:58.832Z,15.57
2017-05-22T00:16:39.287Z,15.64
2017-05-22T00:17:19.764Z,15.65
2017-05-22T00:18:00.229Z,15.64
2017-05-22T00:18:40.662Z,15.67
2017-05-22T00:19:21.161Z,15.6
2017-05-22T00:20:02.236Z,15.65
2017-05-22T00:20:42.677Z,15.64
2017-05-22T00:21:23.126Z,15.65
2017-05-22T00:23:35.861Z,15.51
2017-05-22T00:24:16.329Z,15.53
2017-05-22T00:24:56.782Z,15.41
2017-05-22T00:25:37.265Z,15.17
2017-05-22T00:26:17.734Z,15.1
2017-05-22T00:26:58.182Z,15.13
2017-05-22T00:27:38.637Z,14.98
2017-05-22T00:28:19.091Z,14.94
2017-05-22T00:28:59.575Z,14.98
2017-05-22T00:29:40.017Z,14.99
2017-05-22T00:30:20.520Z,14.84
2017-05-22T00:31:00.983Z,14.86
2017-05-22T00:33:13.699Z,14.68
2017-05-22T00:33:54.188Z,14.65
2017-05-22T00:34:34.690Z,14.72
2017-05-22T00:35:15.189Z,14.68
2017-05-22T00:35:55.716Z,14.62
2017-05-22T00:36:36.141Z,14.6
2017-05-22T00:37:16.625Z,14.73
2017-05-22T00:37:57.106Z,14.73
2017-05-22T00:38:37.627Z,14.73
2017-05-22T00:39:18.124Z,14.6
2017-05-22T00:39:59.482Z,14.7
2017-05-22T00:40:39.966Z,14.6
2017-05-22T00:41:20.488Z,14.55
2017-05-22T00:42:01.749Z,14.46
2017-05-22T00:42:42.262Z,14.62
2017-05-22T00:43:22.770Z,14.57
2017-05-22T00:44:03.243Z,14.6
2017-05-22T00:44:43.739Z,14.62
2017-05-22T00:45:24.238Z,14.54
2017-05-22T00:46:04.739Z,14.54
2017-05-22T00:46:45.221Z,14.51
2017-05-22T00:47:25.712Z,14.55
2017-05-22T00:48:06.185Z,14.57
2017-05-22T00:48:46.665Z,14.61
2017-05-22T00:49:27.160Z,14.65
2017-05-22T00:50:07.653Z,14.55
2017-05-22T00:50:48.162Z,14.6
2017-05-22T00:51:28.598Z,14.52
2017-05-22T00:52:09.083Z,14.51
2017-05-22T00:52:49.553Z,14.52
2017-05-22T00:53:29.985Z,14.47
2017-05-22T00:54:10.512Z,14.52
2017-05-22T00:54:51.020Z,14.51
2017-05-22T00:55:31.532Z,14.47
2017-05-22T00:56:11.986Z,14.52
2017-05-22T00:56:52.468Z,14.5
2017-05-22T00:57:32.969Z,14.51
2017-05-22T00:58:13.443Z,14.42
2017-05-22T00:58:53.941Z,14.51
2017-05-22T00:59:34.406Z,14.57
2017-05-22T01:01:21.859Z,14.6
2017-05-22T01:02:02.366Z,14.69
2017-05-22T01:02:43.744Z,14.72
2017-05-22T01:03:24.243Z,14.64
2017-05-22T01:04:04.713Z,14.52
2017-05-22T01:04:45.198Z,14.6
2017-05-22T01:05:25.690Z,14.6
2017-05-22T01:06:06.170Z,14.52
2017-05-22T01:06:46.658Z,14.6
2017-05-22T01:07:27.140Z,14.5
2017-05-22T01:08:07.659Z,14.58
2017-05-22T01:08:48.177Z,14.52
2017-05-22T01:09:28.684Z,14.45
2017-05-22T01:10:09.175Z,14.5
2017-05-22T01:10:49.674Z,14.5
2017-05-22T01:11:30.146Z,14.5
2017-05-22T01:12:10.624Z,14.51
2017-05-22T01:12:51.114Z,14.43
2017-05-22T01:13:31.585Z,14.37
2017-05-22T01:14:12.086Z,14.39
2017-05-22T01:14:52.571Z,14.36
2017-05-22T01:15:33.050Z,14.42
2017-05-22T01:16:13.536Z,14.36
2017-05-22T01:16:54.005Z,14.36
2017-05-22T01:17:34.483Z,14.37
2017-05-22T01:18:15.841Z,14.36
2017-05-22T01:18:56.322Z,14.39
2017-05-22T01:19:36.812Z,14.36
2017-05-22T01:20:17.287Z,14.28
2017-05-22T01:20:57.777Z,14.28
2017-05-22T01:21:38.261Z,14.28
2017-05-22T01:22:18.748Z,14.35
2017-05-22T01:22:59.227Z,14.36
2017-05-22T01:23:39.746Z,14.33
2017-05-22T01:24:20.226Z,14.36
2017-05-22T01:25:00.715Z,14.43
2017-05-22T01:26:58.346Z,14.39
2017-05-22T01:27:38.843Z,14.39
2017-05-22T01:28:19.331Z,14.37
2017-05-22T01:28:59.809Z,14.27
2017-05-22T01:29:40.292Z,14.24
2017-05-22T01:30:20.773Z,14.21
2017-05-22T01:31:01.269Z,14.2
2017-05-22T01:31:41.739Z,14.24
2017-05-22T01:32:22.224Z,14.25
2017-05-22T01:33:02.725Z,14.32
2017-05-22T01:33:43.196Z,14.33
2017-05-22T01:34:24.238Z,14.4
2017-05-22T01:35:04.710Z,14.37
2017-05-22T01:35:45.187Z,14.39
2017-05-22T01:36:25.668Z,14.39
2017-05-22T01:37:06.149Z,14.28
2017-05-22T01:37:46.671Z,14.32
2017-05-22T01:38:27.148Z,14.37
2017-05-22T01:39:07.632Z,14.33
2017-05-22T01:39:48.114Z,14.46
2017-05-22T01:40:28.605Z,14.35
2017-05-22T01:41:09.089Z,14.28
2017-05-22T01:41:49.580Z,14.28
2017-05-22T01:42:30.061Z,14.33
2017-05-22T01:43:10.567Z,14.42
2017-05-22T01:43:51.045Z,14.45
2017-05-22T01:44:31.573Z,14.36
2017-05-22T01:45:12.053Z,14.4
2017-05-22T01:45:52.548Z,14.24
2017-05-22T01:47:40.799Z,14.37
2017-05-22T01:48:21.270Z,14.17
2017-05-22T01:49:01.749Z,14.27
2017-05-22T01:49:42.251Z,14.24
2017-05-22T01:50:22.731Z,14.27
2017-05-22T01:51:03.237Z,14.27
2017-05-22T01:51:43.723Z,14.14
2017-05-22T01:52:24.209Z,14.15
2017-05-22T01:53:04.685Z,14.12
2017-05-22T01:53:45.161Z,14.17
2017-05-22T01:54:25.674Z,14.14
2017-05-22T01:55:06.119Z,14.14
2017-05-22T01:56:43.484Z,14.21
2017-05-22T01:57:23.926Z,14.15
2017-05-22T01:58:04.418Z,14.18
2017-05-22T01:58:44.902Z,14.15
2017-05-22T01:59:25.393Z,14.18
2017-05-22T02:00:05.819Z,14.06
2017-05-22T02:00:46.315Z,14.17
2017-05-22T02:01:26.806Z,14.1
2017-05-22T02:02:07.305Z,14.12
2017-05-22T02:02:47.748Z,14.06
2017-05-22T02:03:28.244Z,14.04
2017-05-22T02:04:08.739Z,14.1
2017-05-22T02:04:49.223Z,14
2017-05-22T02:05:29.717Z,13.91
2017-05-22T02:06:10.163Z,13.97
2017-05-22T02:06:50.645Z,13.97
2017-05-22T02:07:31.117Z,14
2017-05-22T02:08:11.559Z,13.96
2017-05-22T02:08:51.996Z,13.95
2017-05-22T02:09:32.464Z,13.87
2017-05-22T02:10:12.923Z,13.85
2017-05-22T02:10:53.372Z,13.92
2017-05-22T02:11:33.823Z,13.84
2017-05-22T02:12:14.942Z,13.85
2017-05-22T02:12:55.430Z,13.82
2017-05-22T02:14:43.183Z,13.73
2017-05-22T02:15:23.379Z,13.79
2017-05-22T02:16:03.840Z,13.69
2017-05-22T02:16:44.290Z,13.78
2017-05-22T02:18:42.217Z,13.66
2017-05-22T02:19:22.442Z,13.67
2017-05-22T02:20:02.862Z,13.67
2017-05-22T02:20:43.323Z,13.6
2017-05-22T02:21:23.775Z,13.62
2017-05-22T02:22:04.205Z,13.6
2017-05-22T02:22:44.620Z,13.55
2017-05-22T02:23:25.068Z,13.63
2017-05-22T02:25:22.686Z,13.64
2017-05-22T02:26:04.053Z,13.62
2017-05-22T02:26:44.544Z,13.52
2017-05-22T02:27:25.034Z,13.49
2017-05-22T02:28:06.471Z,13.52
2017-05-22T02:28:46.978Z,13.49
2017-05-22T02:29:27.468Z,13.46
2017-05-22T02:30:07.962Z,13.52
2017-05-22T02:30:48.451Z,13.48
2017-05-22T02:31:29.731Z,13.39
2017-05-22T02:32:10.198Z,13.29
2017-05-22T02:32:50.686Z,13.33
2017-05-22T02:33:31.135Z,13.25
2017-05-22T02:34:11.571Z,13.29
2017-05-22T02:35:48.971Z,13.38
2017-05-22T02:36:29.464Z,13.44
2017-05-22T02:37:09.842Z,13.32
2017-05-22T02:37:50.353Z,13.3
2017-05-22T02:38:30.837Z,13.42
2017-05-22T02:39:11.327Z,13.33
2017-05-22T02:39:51.825Z,13.38
2017-05-22T02:40:32.302Z,13.12
2017-05-22T02:41:12.786Z,13.07
2017-05-22T02:41:53.266Z,13.07
2017-05-22T02:42:34.368Z,13.03
2017-05-22T02:43:14.876Z,12.95
2017-05-22T02:43:55.342Z,13.07
2017-05-22T02:44:36.794Z,13.03
2017-05-22T02:45:17.287Z,13.04
2017-05-22T02:45:57.786Z,13.01
2017-05-22T02:46:38.242Z,13.07
2017-05-22T02:47:18.720Z,13.08
2017-05-22T02:47:59.197Z,13.11
2017-05-22T02:48:39.679Z,13.07
2017-05-22T02:49:20.160Z,13.05
2017-05-22T02:50:00.652Z,13.05
2017-05-22T02:50:41.121Z,13.11
2017-05-22T02:51:21.612Z,13.14
2017-05-22T02:52:02.086Z,13.14
2017-05-22T02:52:42.576Z,13.32
2017-05-22T02:53:23.069Z,13.19
2017-05-22T02:54:04.110Z,13.07
2017-05-22T02:54:44.596Z,13.03
2017-05-22T02:55:25.088Z,13.19
2017-05-22T02:56:05.581Z,13.22
2017-05-22T02:56:46.012Z,13.19
2017-05-22T02:57:26.461Z,13.22
2017-05-22T02:58:06.924Z,13.12
2017-05-22T02:59:59.459Z,13.22
2017-05-22T03:00:39.946Z,13.14
2017-05-22T03:01:20.443Z,13.19
2017-05-22T03:02:00.918Z,13.17
2017-05-22T03:02:41.401Z,13.15
2017-05-22T03:03:21.900Z,13.19
2017-05-22T03:04:02.392Z,13.23
2017-05-22T03:06:00.059Z,13.19
2017-05-22T03:06:40.506Z,13.19
2017-05-22T03:07:21.809Z,13.2
2017-05-22T03:08:02.312Z,13.23
2017-05-22T03:08:42.788Z,13.07
2017-05-22T03:09:23.279Z,13.25
2017-05-22T03:10:03.771Z,13.22
2017-05-22T03:10:44.263Z,13.19
2017-05-22T03:11:24.747Z,13.12
2017-05-22T03:12:05.241Z,13.04
2017-05-22T03:12:45.685Z,13.23
2017-05-22T03:13:26.982Z,13.08
2017-05-22T03:14:07.463Z,13.03
2017-05-22T03:14:47.942Z,12.92
2017-05-22T03:16:25.450Z,13.07
2017-05-22T03:17:05.813Z,12.92
2017-05-22T03:17:46.257Z,13.05
2017-05-22T03:18:26.702Z,13.17
2017-05-22T03:19:07.132Z,12.93
2017-05-22T03:19:47.565Z,13.07
2017-05-22T03:20:28.025Z,12.95
2017-05-22T03:21:08.456Z,13.03
2017-05-22T03:21:48.902Z,13.05
2017-05-22T03:23:46.560Z,13.05
2017-05-22T03:24:27.004Z,12.96
2017-05-22T03:25:07.508Z,13
2017-05-22T03:25:48.000Z,13.01
2017-05-22T03:26:28.548Z,12.97
2017-05-22T03:27:08.984Z,13.07
2017-05-22T03:27:49.474Z,13.01
2017-05-22T03:28:29.956Z,13.04
2017-05-22T03:29:10.442Z,13.05
2017-05-22T03:29:50.984Z,13.1
2017-05-22T03:30:32.316Z,13.11
2017-05-22T03:31:12.801Z,13.08
2017-05-22T03:31:53.290Z,12.95
2017-05-22T03:32:33.771Z,12.89
2017-05-22T03:33:14.277Z,13.03
2017-05-22T03:33:54.770Z,13.1
2017-05-22T03:34:35.253Z,13.08
2017-05-22T03:35:15.754Z,12.9
2017-05-22T03:35:56.895Z,12.92
2017-05-22T03:36:37.368Z,12.96
2017-05-22T03:37:17.849Z,12.86
2017-05-22T03:37:58.329Z,12.89
2017-05-22T03:38:38.835Z,12.9
2017-05-22T03:39:19.310Z,12.86
2017-05-22T03:39:59.860Z,12.9
2017-05-22T03:40:40.345Z,12.86
2017-05-22T03:41:20.835Z,12.87
2017-05-22T03:42:01.306Z,12.89
2017-05-22T03:42:42.488Z,12.93
2017-05-22T03:43:22.969Z,13
2017-05-22T03:44:03.440Z,12.89
2017-05-22T03:44:43.898Z,12.96
2017-05-22T03:45:24.335Z,12.87
2017-05-22T03:46:04.778Z,12.75
2017-05-22T03:46:45.229Z,12.85
2017-05-22T03:48:57.966Z,12.9
2017-05-22T03:49:38.443Z,12.77
2017-05-22T03:50:18.937Z,12.75
2017-05-22T03:50:59.406Z,12.77
2017-05-22T03:51:39.897Z,12.65
2017-05-22T03:52:20.407Z,12.77
2017-05-22T03:53:00.844Z,12.7
2017-05-22T03:53:41.338Z,12.7
2017-05-22T03:54:21.845Z,12.7
2017-05-22T03:55:02.320Z,12.72
2017-05-22T03:55:42.807Z,12.78
2017-05-22T03:56:23.304Z,12.82
2017-05-22T03:57:03.792Z,12.77
2017-05-22T03:57:44.283Z,12.68
2017-05-22T03:58:24.759Z,12.72
2017-05-22T03:59:05.244Z,12.78
2017-05-22T03:59:45.718Z,12.89
2017-05-22T04:00:26.223Z,12.85
2017-05-22T04:01:06.698Z,12.86
2017-05-22T04:01:47.151Z,12.92
2017-05-22T04:02:27.592Z,12.87
2017-05-22T04:04:40.362Z,12.89
2017-05-22T04:05:21.711Z,12.89
2017-05-22T04:06:02.193Z,12.89
2017-05-22T04:06:42.687Z,12.87
2017-05-22T04:07:23.180Z,12.9
2017-05-22T04:08:03.649Z,12.97
2017-05-22T04:08:44.129Z,13.01
2017-05-22T04:09:24.593Z,12.93
2017-05-22T04:10:05.074Z,12.96
2017-05-22T04:10:46.112Z,12.85
2017-05-22T04:11:27.197Z,12.92
2017-05-22T04:12:07.674Z,13.08
2017-05-22T04:12:48.171Z,13.05
2017-05-22T04:13:28.639Z,13.04
2017-05-22T04:14:09.134Z,13.1
2017-05-22T04:14:49.642Z,12.93
2017-05-22T04:15:30.137Z,12.96
2017-05-22T04:16:10.611Z,12.95
2017-05-22T04:16:51.040Z,13.05
2017-05-22T04:17:31.498Z,13.01
2017-05-22T04:18:11.932Z,12.97
2017-05-22T04:18:52.464Z,13.01
2017-05-22T04:19:32.899Z,13.03
2017-05-22T04:20:13.377Z,12.97
2017-05-22T04:20:53.857Z,12.95
2017-05-22T04:21:34.277Z,12.97
2017-05-22T04:22:14.736Z,12.95
2017-05-22T04:22:55.210Z,12.96
2017-05-22T04:23:35.667Z,12.92
2017-05-22T04:24:16.147Z,12.92
2017-05-22T04:24:56.648Z,12.85
2017-05-22T04:25:37.116Z,12.93
2017-05-22T04:26:17.593Z,12.86
2017-05-22T04:26:58.052Z,12.86
2017-05-22T04:28:45.680Z,12.9
2017-05-22T04:29:26.149Z,12.93
2017-05-22T04:30:06.592Z,12.97
2017-05-22T04:30:47.055Z,12.96
2017-05-22T04:31:27.500Z,13.01
2017-05-22T04:32:07.945Z,13.01
2017-05-22T04:32:48.434Z,13.08
2017-05-22T04:33:28.891Z,13.1
2017-05-22T04:34:09.331Z,13.03
2017-05-22T04:34:49.761Z,13.12
2017-05-22T04:35:30.256Z,13.07
2017-05-22T04:36:10.706Z,13.11
2017-05-22T04:36:51.173Z,13.15
2017-05-22T04:37:31.632Z,13.25
2017-05-22T04:38:12.058Z,13.3
2017-05-22T04:38:52.496Z,13.38
2017-05-22T04:40:50.161Z,13.55
2017-05-22T04:41:30.591Z,13.62
2017-05-22T04:42:11.072Z,13.63
2017-05-22T04:42:52.392Z,13.67
2017-05-22T04:43:32.873Z,13.73
2017-05-22T04:44:13.358Z,13.79
2017-05-22T04:44:53.812Z,13.89
2017-05-22T04:45:34.255Z,13.89
2017-05-22T04:46:14.681Z,13.87
2017-05-22T04:46:55.156Z,14
2017-05-22T04:47:36.284Z,14.04
2017-05-22T04:48:18.548Z,14.12
2017-05-22T04:48:59.009Z,14.18
2017-05-22T04:49:39.458Z,14.17
2017-05-22T04:51:32.028Z,14.32
2017-05-22T04:52:12.493Z,14.39
2017-05-22T04:52:52.986Z,14.39
2017-05-22T04:53:34.389Z,14.37
2017-05-22T04:54:14.883Z,14.42
2017-05-22T04:54:55.454Z,14.43
2017-05-22T04:55:35.899Z,14.45
2017-05-22T04:56:16.387Z,14.33
2017-05-22T04:56:56.878Z,14.54
2017-05-22T04:57:37.352Z,14.61
2017-05-22T04:58:17.848Z,14.51
2017-05-22T04:58:58.367Z,14.58
2017-05-22T04:59:38.864Z,14.65
2017-05-22T05:00:19.330Z,14.72
2017-05-22T05:00:59.816Z,14.83
2017-05-22T05:01:41.212Z,14.83
2017-05-22T05:02:21.635Z,14.99
2017-05-22T05:03:02.151Z,14.98
2017-05-22T05:03:42.622Z,15.06
2017-05-22T05:04:23.099Z,15.27
2017-05-22T05:05:03.568Z,15.34
2017-05-22T05:05:45.963Z,15.47
2017-05-22T05:06:26.429Z,15.65
2017-05-22T05:07:06.909Z,15.78
2017-05-22T05:07:47.374Z,15.84
2017-05-22T05:08:27.825Z,16.01
2017-05-22T05:09:08.302Z,16.15
2017-05-22T05:09:48.738Z,16.28
2017-05-22T05:11:36.326Z,16.39
2017-05-22T05:12:16.689Z,16.57
2017-05-22T05:12:57.162Z,16.53
2017-05-22T05:14:49.743Z,16.5
2017-05-22T05:15:30.162Z,16.49
2017-05-22T05:16:10.665Z,16.81
2017-05-22T05:16:51.362Z,16.93
2017-05-22T05:17:31.857Z,16.79
2017-05-22T05:18:12.343Z,16.83
2017-05-22T05:20:04.900Z,16.86
2017-05-22T05:20:45.358Z,16.89
2017-05-22T05:21:25.860Z,17.01
2017-05-22T05:22:06.365Z,17.19
2017-05-22T05:22:46.847Z,17.21
2017-05-22T05:23:27.310Z,16.96
2017-05-22T05:24:07.761Z,16.79
2017-05-22T05:24:49.181Z,16.67
2017-05-22T05:26:26.585Z,16.31
2017-05-22T05:27:06.992Z,16.24
2017-05-22T05:27:47.498Z,16.27
2017-05-22T05:28:27.984Z,16.14
2017-05-22T05:29:08.517Z,16.01
2017-05-22T05:29:48.956Z,16.09
2017-05-22T05:30:29.422Z,16.17
2017-05-22T05:31:09.911Z,16.38
2017-05-22T05:31:50.408Z,16.57
2017-05-22T05:33:48.068Z,16.53
2017-05-22T05:34:28.463Z,16.68
2017-05-22T05:35:08.962Z,16.67
2017-05-22T05:35:49.433Z,16.67
2017-05-22T05:36:31.390Z,16.49
2017-05-22T05:37:11.851Z,16.39
2017-05-22T05:37:52.306Z,16.52
2017-05-22T05:39:44.898Z,16.88
2017-05-22T05:40:25.356Z,17.08
2017-05-22T05:41:05.826Z,17.22
2017-05-22T05:41:46.316Z,17.48
2017-05-22T05:42:28.231Z,17.54
2017-05-22T05:43:08.718Z,17.49
2017-05-22T05:43:49.205Z,17.55
2017-05-22T05:44:29.704Z,17.84
2017-05-22T05:45:10.211Z,18.14
2017-05-22T05:45:51.550Z,18.41
2017-05-22T05:46:32.037Z,18.57
2017-05-22T05:47:12.608Z,18.73
2017-05-22T05:47:53.024Z,18.73
2017-05-22T05:48:33.525Z,18.17
2017-05-22T05:49:14.007Z,17.96
2017-05-22T05:49:54.500Z,18
2017-05-22T05:50:34.993Z,18.32
2017-05-22T05:51:15.472Z,18.36
2017-05-22T05:51:56.019Z,18.47
2017-05-22T05:52:36.480Z,18.6
2017-05-22T05:53:16.951Z,18.69
2017-05-22T05:53:57.436Z,18.92
2017-05-22T05:54:37.883Z,19.1
2017-05-22T05:55:18.372Z,18.72
2017-05-22T05:55:58.837Z,18.7
2017-05-22T05:56:40.656Z,18.94
2017-05-22T05:58:53.456Z,19.59
2017-05-22T05:59:33.890Z,19.56
2017-05-22T06:00:14.363Z,19.56
2017-05-22T06:00:56.801Z,19.33
2017-05-22T06:01:37.246Z,19.21
2017-05-22T06:02:18.385Z,19.32
2017-05-22T06:04:05.991Z,19.74
2017-05-22T06:04:46.355Z,20.17
2017-05-22T06:05:27.004Z,20.29
2017-05-22T06:06:07.460Z,20.5
2017-05-22T06:06:47.955Z,20.57
2017-05-22T06:07:28.427Z,20.28
2017-05-22T06:08:08.902Z,19.96
2017-05-22T06:08:49.364Z,20.35
2017-05-22T06:09:29.832Z,20.67
2017-05-22T06:10:10.273Z,20.88
2017-05-22T06:10:50.729Z,21.03
2017-05-22T06:11:31.176Z,21.04
2017-05-22T06:12:11.659Z,21.12
2017-05-22T06:12:52.209Z,21.1
2017-05-22T06:13:32.646Z,21.28
2017-05-22T06:14:13.126Z,21.61
2017-05-22T06:14:53.699Z,21.44
2017-05-22T06:15:35.560Z,21.4
2017-05-22T06:16:16.780Z,21.49
2017-05-22T06:16:57.451Z,21.74
2017-05-22T06:17:37.899Z,21.49
2017-05-22T06:18:18.335Z,21.82
2017-05-22T06:18:58.812Z,21.68
2017-05-22T06:20:56.489Z,22.12
2017-05-22T06:21:37.016Z,22.3
2017-05-22T06:22:18.150Z,22.35
2017-05-22T06:22:58.630Z,22.46
2017-05-22T06:24:57.143Z,22.68
2017-05-22T06:25:37.303Z,22.77
2017-05-22T06:26:17.767Z,22.73
2017-05-22T06:26:58.228Z,22.82
2017-05-22T06:27:38.680Z,23.01
2017-05-22T06:28:19.178Z,22.9
2017-05-22T06:28:59.683Z,22.88
2017-05-22T06:29:40.127Z,22.86
2017-05-22T06:30:20.700Z,23.01
2017-05-22T06:31:01.132Z,22.68
2017-05-22T06:31:41.615Z,22.94
2017-05-22T06:32:22.129Z,23.12
2017-05-22T06:33:02.657Z,23.17
2017-05-22T06:33:43.073Z,22.92
2017-05-22T06:35:55.834Z,23.04
2017-05-22T06:36:36.801Z,22.68
2017-05-22T06:37:17.279Z,22.91
2017-05-22T06:37:57.768Z,22.94
2017-05-22T06:38:38.246Z,22.77
2017-05-22T06:39:18.691Z,23.17
2017-05-22T06:40:00.057Z,23.51
2017-05-22T06:40:40.520Z,22.8
2017-05-22T06:41:20.994Z,22.85
2017-05-22T06:42:01.469Z,22.95
2017-05-22T06:42:43.556Z,23.25
2017-05-22T06:44:36.112Z,23.66
2017-05-22T06:45:16.603Z,23.69
2017-05-22T06:45:57.086Z,24.02
2017-05-22T06:46:38.493Z,23.98
2017-05-22T06:47:19.665Z,23.04
2017-05-22T06:48:00.158Z,23.27
2017-05-22T06:48:40.650Z,23.58
2017-05-22T06:49:21.148Z,23.69
2017-05-22T06:50:02.488Z,23.4
2017-05-22T06:50:45.653Z,23.07
2017-05-22T06:51:26.154Z,22.9
2017-05-22T06:53:18.758Z,22.77
2017-05-22T06:53:59.232Z,22.67
2017-05-22T06:54:39.721Z,22.7
2017-05-22T06:55:20.201Z,23.33
2017-05-22T06:56:00.678Z,23.27
2017-05-22T06:56:41.150Z,22.8
2017-05-22T06:57:21.652Z,23.23
2017-05-22T06:58:02.101Z,22.98
2017-05-22T06:58:42.552Z,22.47
2017-05-22T06:59:22.977Z,22.43
2017-05-22T07:00:03.507Z,22.64
2017-05-22T07:00:44.001Z,22.35
2017-05-22T07:01:24.451Z,22.39
2017-05-22T07:02:04.909Z,22.67
2017-05-22T07:02:45.349Z,22.64
2017-05-22T07:03:26.798Z,22.62
2017-05-22T07:04:07.266Z,22.95
2017-05-22T07:04:47.722Z,22.57
2017-05-22T07:06:45.382Z,22.3
2017-05-22T07:07:26.090Z,22.47
2017-05-22T07:08:06.559Z,21.8
2017-05-22T07:08:47.028Z,22
2017-05-22T07:09:27.507Z,22.28
2017-05-22T07:11:20.201Z,23
2017-05-22T07:12:00.526Z,23.23
2017-05-22T07:12:40.962Z,23.1
2017-05-22T07:13:21.499Z,23.25
2017-05-22T07:14:02.022Z,23.27
2017-05-22T07:14:42.413Z,23.58
2017-05-22T07:15:22.889Z,23.48
2017-05-22T07:17:15.469Z,23.23
2017-05-22T07:17:55.947Z,23.32
2017-05-22T07:18:36.993Z,23.55
2017-05-22T07:19:17.540Z,23.84
2017-05-22T07:19:57.988Z,24.31
2017-05-22T07:20:38.479Z,24.53
2017-05-22T07:21:18.963Z,24.42
2017-05-22T07:21:59.426Z,23.95
2017-05-22T07:22:40.837Z,23.98
2017-05-22T07:23:21.314Z,24.1
2017-05-22T07:24:01.786Z,23.4
2017-05-22T07:25:39.248Z,24.55
2017-05-22T07:26:19.649Z,24.88
2017-05-22T07:27:00.095Z,25.54
2017-05-22T07:27:40.550Z,25.2
2017-05-22T07:28:22.452Z,25.45
2017-05-22T07:29:03.791Z,25.24
2017-05-22T07:29:44.282Z,25.69
2017-05-22T07:30:24.716Z,24.77
2017-05-22T07:31:05.198Z,25.25
2017-05-22T07:32:57.994Z,25.94
2017-05-22T07:33:38.431Z,25.9
2017-05-22T07:34:18.896Z,25.76
2017-05-22T07:34:59.379Z,25.33
2017-05-22T07:35:39.847Z,25.32
2017-05-22T07:37:27.331Z,25.6
2017-05-22T07:38:07.846Z,25.64
2017-05-22T07:38:48.332Z,25.92
2017-05-22T07:39:28.809Z,26.1
2017-05-22T07:40:09.273Z,26.2
2017-05-22T07:40:49.733Z,26.36
2017-05-22T07:41:30.300Z,25.83
2017-05-22T07:42:10.796Z,25.06
2017-05-22T07:42:51.212Z,25.64
2017-05-22T07:43:31.699Z,26.18
2017-05-22T07:44:12.222Z,26.55
2017-05-22T07:44:52.692Z,26.85
2017-05-22T07:45:33.156Z,26.52
2017-05-22T07:46:13.652Z,26.1
2017-05-22T07:46:54.170Z,26.55
2017-05-22T07:47:34.618Z,27.07
2017-05-22T07:48:15.083Z,27.29
2017-05-22T07:48:55.524Z,27.12
2017-05-22T07:49:36.000Z,27.24
2017-05-22T07:51:28.648Z,27.84
2017-05-22T07:52:09.167Z,27.46
2017-05-22T07:52:49.668Z,27.63
2017-05-22T07:53:30.138Z,27.67
2017-05-22T07:55:07.526Z,27.87
2017-05-22T07:55:48.006Z,27.75
2017-05-22T07:56:28.505Z,27.93
2017-05-22T07:57:08.987Z,27.57
2017-05-22T07:57:49.421Z,27.72
2017-05-22T07:58:29.935Z,26.94
2017-05-22T07:59:10.424Z,26.81
2017-05-22T07:59:51.822Z,27.1
2017-05-22T08:00:32.331Z,27.79
2017-05-22T08:01:12.783Z,27.37
2017-05-22T08:01:53.288Z,26.12
2017-05-22T08:02:34.565Z,26.47
2017-05-22T08:03:15.095Z,26.58
2017-05-22T08:05:12.767Z,25.88
2017-05-22T08:05:53.231Z,26.29
2017-05-22T08:06:33.693Z,26.28
2017-05-22T08:07:14.113Z,25.65
2017-05-22T08:07:54.544Z,25.67
2017-05-22T08:08:35.059Z,26.06
2017-05-22T08:09:20.408Z,25.91
2017-05-22T08:10:01.050Z,26.1
2017-05-22T08:10:41.362Z,26.8
2017-05-22T08:11:22.022Z,27.14
2017-05-22T08:12:02.526Z,27.41
2017-05-22T08:12:43.051Z,27.88
2017-05-22T08:13:23.699Z,27.84
2017-05-22T08:14:05.969Z,27.44
2017-05-22T08:14:47.121Z,27.37
2017-05-22T08:15:27.596Z,27.97
2017-05-22T08:16:08.192Z,28.14
2017-05-22T08:17:45.630Z,27.87
2017-05-22T08:18:26.004Z,27.12
2017-05-22T08:19:07.282Z,27.78
2017-05-22T08:19:47.775Z,28.44
2017-05-22T08:20:28.222Z,27.31
2017-05-22T08:21:08.777Z,27.49
2017-05-22T08:21:49.200Z,27.62
2017-05-22T08:22:29.662Z,27.12
2017-05-22T08:23:10.241Z,27.03
2017-05-22T08:23:50.681Z,26.89
2017-05-22T08:24:31.135Z,26.84
2017-05-22T08:25:11.665Z,26.73
2017-05-22T08:25:52.139Z,26.55
2017-05-22T08:26:32.574Z,26.1
2017-05-22T08:27:13.034Z,25.92
2017-05-22T08:27:53.465Z,25.33
2017-05-22T08:28:33.993Z,25.94
2017-05-22T08:29:14.442Z,26.35
2017-05-22T08:29:54.900Z,26.66
2017-05-22T08:30:35.422Z,26.77
2017-05-22T08:31:15.865Z,27.43
2017-05-22T08:31:56.337Z,27.81
2017-05-22T08:32:36.810Z,28.29
2017-05-22T08:33:17.296Z,27.74
2017-05-22T08:35:04.833Z,28.15
2017-05-22T08:35:45.273Z,28.39
2017-05-22T08:37:22.683Z,29.61
2017-05-22T08:38:03.190Z,29.92
2017-05-22T08:38:43.632Z,30.08
2017-05-22T08:39:24.162Z,30.51
2017-05-22T08:40:04.752Z,30.11
2017-05-22T08:40:45.204Z,29.95
2017-05-22T08:42:38.712Z,29.19
2017-05-22T08:43:19.068Z,29.98
2017-05-22T08:43:59.602Z,29.57
2017-05-22T08:45:57.296Z,29.51
2017-05-22T08:46:37.623Z,29.87
2017-05-22T08:47:18.165Z,30.49
2017-05-22T08:47:58.695Z,30.05
2017-05-22T08:49:56.772Z,29.89
2017-05-22T08:50:37.127Z,30.38
2017-05-22T08:51:17.725Z,30.43
2017-05-22T08:51:58.250Z,29.41
2017-05-22T08:52:38.703Z,29.57
2017-05-22T08:53:19.144Z,30.01
2017-05-22T08:53:59.628Z,30.13
2017-05-22T08:54:40.202Z,29.73
2017-05-22T08:55:20.748Z,29.94
2017-05-22T08:56:01.188Z,30.45
2017-05-22T08:56:41.651Z,31.23
2017-05-22T08:57:22.155Z,32.13
2017-05-22T08:58:02.728Z,31.81
2017-05-22T08:58:43.224Z,30.84
2017-05-22T08:59:23.910Z,29.52
2017-05-22T09:00:04.338Z,27.9
2017-05-22T09:01:51.912Z,28.46
2017-05-22T09:02:32.387Z,28.7
2017-05-22T09:03:12.901Z,28.36
2017-05-22T09:03:53.405Z,28.67
2017-05-22T09:04:33.927Z,29.33
2017-05-22T09:05:14.435Z,29.23
2017-05-22T09:05:55.016Z,28.98
2017-05-22T09:06:35.606Z,29.51
2017-05-22T09:07:16.151Z,29.9
2017-05-22T09:07:56.637Z,30.08
2017-05-22T09:08:38.105Z,29.97
2017-05-22T09:09:18.630Z,29.61
2017-05-22T09:09:59.058Z,29.37
2017-05-22T09:10:39.694Z,29
2017-05-22T09:11:20.383Z,27.97
2017-05-22T09:12:01.024Z,28.14
2017-05-22T09:12:41.350Z,27.46
2017-05-22T09:13:21.831Z,28.21
2017-05-22T09:14:02.389Z,27.67
2017-05-22T09:14:43.017Z,28.02
2017-05-22T09:15:23.489Z,28.93
2017-05-22T09:16:04.186Z,30.35
2017-05-22T09:17:56.838Z,32.62
2017-05-22T09:18:37.298Z,31.91
2017-05-22T09:19:17.884Z,30.84
2017-05-22T09:19:58.516Z,30.77
2017-05-22T09:20:38.996Z,30.38
2017-05-22T09:21:19.493Z,30.65
2017-05-22T09:21:59.980Z,31.12
2017-05-22T09:22:40.413Z,31.07
2017-05-22T09:23:20.907Z,29.98
2017-05-22T09:24:01.362Z,30.26
2017-05-22T09:24:41.854Z,30.82
2017-05-22T09:25:22.426Z,30.35
2017-05-22T09:26:02.940Z,30.35
2017-05-22T09:27:55.623Z,30.2
2017-05-22T09:28:36.985Z,30.77
2017-05-22T09:29:17.467Z,30
2017-05-22T09:29:59.617Z,30.31
2017-05-22T09:30:40.264Z,30.04
2017-05-22T09:32:17.856Z,30.75
2017-05-22T09:32:58.348Z,30.72
2017-05-22T09:33:39.111Z,31.43
2017-05-22T09:34:19.845Z,32.13
2017-05-22T09:35:00.366Z,31.96
2017-05-22T09:35:40.820Z,31.81
2017-05-22T09:36:21.346Z,31.73
2017-05-22T09:37:02.072Z,31.54
2017-05-22T09:37:42.544Z,30.47
2017-05-22T09:38:23.084Z,31.51
2017-05-22T09:40:10.775Z,33.23
2017-05-22T09:40:51.285Z,33.66
2017-05-22T09:41:31.776Z,33.66
2017-05-22T09:42:12.307Z,31.66
2017-05-22T09:42:52.851Z,30.88
2017-05-22T09:43:33.370Z,31.14
2017-05-22T09:44:13.949Z,32.44
2017-05-22T09:44:54.486Z,30.72
2017-05-22T09:45:34.997Z,31.19
2017-05-22T09:46:15.585Z,31.69
2017-05-22T09:46:56.040Z,32.62
2017-05-22T09:47:36.949Z,32.82